sensor_id;sensor_type;location;lat;lon;timestamp;temperature;humidity
22765;DHT22;11549;50.852;3.816;2024-02-26T00:00:04;7.00;99.90
22765;DHT22;11549;50.852;3.816;2024-02-26T00:02:36;6.90;99.90
22765;DHT22;11549;50.852;3.816;2024-02-26T00:05:06;6.80;99.90
22765;DHT22;11549;50.852;3.816;2024-02-26T00:07:34;6.80;99.90
22765;DHT22;11549;50.852;3.816;2024-02-26T00:10:06;6.80;99.90
22765;DHT22;11549;50.852;3.816;2024-02-26T00:12:35;6.80;99.90
22765;DHT22;11549;50.852;3.816;2024-02-26T00:15:04;6.80;99.90
22765;DHT22;11549;50.852;3.816;2024-02-26T00:17:33;6.80;99.90
22765;DHT22;11549;50.852;3.816;2024-02-26T00:20:02;6.70;99.90
22765;DHT22;11549;50.852;3.816;2024-02-26T00:22:31;6.70;99.90
22765;DHT22;11549;50.852;3.816;2024-02-26T00:25:00;6.80;99.90
22765;DHT22;11549;50.852;3.816;2024-02-26T00:27:30;6.70;99.90
22765;DHT22;11549;50.852;3.816;2024-02-26T00:29:59;6.80;99.90
22765;DHT22;11549;50.852;3.816;2024-02-26T00:32:27;6.70;99.90
22765;DHT22;11549;50.852;3.816;2024-02-26T00:34:56;6.80;99.90
22765;DHT22;11549;50.852;3.816;2024-02-26T00:37:24;6.70;99.90
22765;DHT22;11549;50.852;3.816;2024-02-26T00:39:53;6.70;99.90
22765;DHT22;11549;50.852;3.816;2024-02-26T00:42:21;6.70;99.90
22765;DHT22;11549;50.852;3.816;2024-02-26T00:44:52;6.70;99.90
22765;DHT22;11549;50.852;3.816;2024-02-26T00:47:20;6.70;99.90
22765;DHT22;11549;50.852;3.816;2024-02-26T00:49:49;6.70;99.90
22765;DHT22;11549;50.852;3.816;2024-02-26T00:52:17;6.80;99.90
22765;DHT22;11549;50.852;3.816;2024-02-26T00:54:46;6.70;99.90
22765;DHT22;11549;50.852;3.816;2024-02-26T00:57:14;6.60;99.90
22765;DHT22;11549;50.852;3.816;2024-02-26T00:59:43;6.60;99.90
22765;DHT22;11549;50.852;3.816;2024-02-26T01:02:12;6.60;99.90
22765;DHT22;11549;50.852;3.816;2024-02-26T01:04:41;6.60;99.90
22765;DHT22;11549;50.852;3.816;2024-02-26T01:07:09;6.60;99.90
22765;DHT22;11549;50.852;3.816;2024-02-26T01:09:38;6.70;99.90
22765;DHT22;11549;50.852;3.816;2024-02-26T01:12:07;6.70;99.90
22765;DHT22;11549;50.852;3.816;2024-02-26T01:14:36;6.70;99.90
22765;DHT22;11549;50.852;3.816;2024-02-26T01:17:05;6.60;99.90
22765;DHT22;11549;50.852;3.816;2024-02-26T01:23:26;6.50;99.90
22765;DHT22;11549;50.852;3.816;2024-02-26T01:25:55;6.50;99.90
22765;DHT22;11549;50.852;3.816;2024-02-26T01:28:23;6.50;99.90
22765;DHT22;11549;50.852;3.816;2024-02-26T01:30:52;6.40;99.90
22765;DHT22;11549;50.852;3.816;2024-02-26T01:33:20;6.50;99.90
22765;DHT22;11549;50.852;3.816;2024-02-26T01:35:50;6.50;99.90
22765;DHT22;11549;50.852;3.816;2024-02-26T01:38:18;6.50;99.90
22765;DHT22;11549;50.852;3.816;2024-02-26T01:40:48;6.50;99.90
22765;DHT22;11549;50.852;3.816;2024-02-26T01:43:16;6.60;99.90
22765;DHT22;11549;50.852;3.816;2024-02-26T01:45:47;6.60;99.90
22765;DHT22;11549;50.852;3.816;2024-02-26T01:48:16;6.60;99.90
22765;DHT22;11549;50.852;3.816;2024-02-26T01:50:44;6.60;99.90
22765;DHT22;11549;50.852;3.816;2024-02-26T01:53:15;6.50;99.90
22765;DHT22;11549;50.852;3.816;2024-02-26T01:55:43;6.50;99.90
22765;DHT22;11549;50.852;3.816;2024-02-26T01:58:14;6.50;99.90
22765;DHT22;11549;50.852;3.816;2024-02-26T02:00:42;6.50;99.90
22765;DHT22;11549;50.852;3.816;2024-02-26T02:03:11;6.40;99.90
22765;DHT22;11549;50.852;3.816;2024-02-26T02:05:40;6.40;99.90
22765;DHT22;11549;50.852;3.816;2024-02-26T02:08:10;6.40;99.90
22765;DHT22;11549;50.852;3.816;2024-02-26T02:10:41;6.50;99.90
22765;DHT22;11549;50.852;3.816;2024-02-26T02:13:10;6.40;99.90
22765;DHT22;11549;50.852;3.816;2024-02-26T02:15:39;6.40;99.90
22765;DHT22;11549;50.852;3.816;2024-02-26T02:18:08;6.40;99.90
22765;DHT22;11549;50.852;3.816;2024-02-26T02:20:38;6.40;99.90
22765;DHT22;11549;50.852;3.816;2024-02-26T02:23:06;6.40;99.90
22765;DHT22;11549;50.852;3.816;2024-02-26T02:25:35;6.40;99.90
22765;DHT22;11549;50.852;3.816;2024-02-26T02:28:04;6.40;99.90
22765;DHT22;11549;50.852;3.816;2024-02-26T02:30:33;6.40;99.90
22765;DHT22;11549;50.852;3.816;2024-02-26T02:33:03;6.40;99.90
22765;DHT22;11549;50.852;3.816;2024-02-26T02:35:32;6.40;99.90
22765;DHT22;11549;50.852;3.816;2024-02-26T02:38:02;6.40;99.90
22765;DHT22;11549;50.852;3.816;2024-02-26T02:40:31;6.40;99.90
22765;DHT22;11549;50.852;3.816;2024-02-26T02:42:59;6.40;99.90
22765;DHT22;11549;50.852;3.816;2024-02-26T02:45:29;6.40;99.90
22765;DHT22;11549;50.852;3.816;2024-02-26T02:47:57;6.40;99.90
22765;DHT22;11549;50.852;3.816;2024-02-26T02:50:26;6.40;99.90
22765;DHT22;11549;50.852;3.816;2024-02-26T02:52:55;6.40;99.90
22765;DHT22;11549;50.852;3.816;2024-02-26T02:55:25;6.40;99.90
22765;DHT22;11549;50.852;3.816;2024-02-26T02:57:54;6.40;99.90
22765;DHT22;11549;50.852;3.816;2024-02-26T03:00:22;6.40;99.90
22765;DHT22;11549;50.852;3.816;2024-02-26T03:02:51;6.40;99.90
22765;DHT22;11549;50.852;3.816;2024-02-26T03:05:19;6.40;99.90
22765;DHT22;11549;50.852;3.816;2024-02-26T03:07:48;6.40;99.90
22765;DHT22;11549;50.852;3.816;2024-02-26T03:10:16;6.40;99.90
22765;DHT22;11549;50.852;3.816;2024-02-26T03:12:46;6.40;99.90
22765;DHT22;11549;50.852;3.816;2024-02-26T03:15:14;6.40;99.90
22765;DHT22;11549;50.852;3.816;2024-02-26T03:17:43;6.40;99.90
22765;DHT22;11549;50.852;3.816;2024-02-26T03:20:12;6.30;99.90
22765;DHT22;11549;50.852;3.816;2024-02-26T03:22:40;6.30;99.90
22765;DHT22;11549;50.852;3.816;2024-02-26T03:25:09;6.30;99.90
22765;DHT22;11549;50.852;3.816;2024-02-26T03:27:37;6.30;99.90
22765;DHT22;11549;50.852;3.816;2024-02-26T03:30:08;6.30;99.90
22765;DHT22;11549;50.852;3.816;2024-02-26T03:32:37;6.30;99.90
22765;DHT22;11549;50.852;3.816;2024-02-26T03:35:06;6.30;99.90
22765;DHT22;11549;50.852;3.816;2024-02-26T03:37:35;6.20;99.90
22765;DHT22;11549;50.852;3.816;2024-02-26T03:40:04;6.20;99.90
22765;DHT22;11549;50.852;3.816;2024-02-26T03:42:33;6.20;99.90
22765;DHT22;11549;50.852;3.816;2024-02-26T03:45:02;6.10;99.90
22765;DHT22;11549;50.852;3.816;2024-02-26T03:47:32;6.10;99.90
22765;DHT22;11549;50.852;3.816;2024-02-26T03:50:01;6.10;99.90
22765;DHT22;11549;50.852;3.816;2024-02-26T03:52:30;6.10;99.90
22765;DHT22;11549;50.852;3.816;2024-02-26T03:54:59;6.10;99.90
22765;DHT22;11549;50.852;3.816;2024-02-26T03:57:28;6.10;99.90
22765;DHT22;11549;50.852;3.816;2024-02-26T03:59:56;6.10;99.90
22765;DHT22;11549;50.852;3.816;2024-02-26T04:02:25;6.00;99.90
22765;DHT22;11549;50.852;3.816;2024-02-26T04:04:55;6.00;99.90
22765;DHT22;11549;50.852;3.816;2024-02-26T04:07:23;6.00;99.90
22765;DHT22;11549;50.852;3.816;2024-02-26T04:09:52;6.00;99.90
22765;DHT22;11549;50.852;3.816;2024-02-26T04:12:21;6.10;99.90
22765;DHT22;11549;50.852;3.816;2024-02-26T04:14:49;6.10;99.90
22765;DHT22;11549;50.852;3.816;2024-02-26T04:17:18;6.10;99.90
22765;DHT22;11549;50.852;3.816;2024-02-26T04:19:46;6.10;99.90
22765;DHT22;11549;50.852;3.816;2024-02-26T04:22:16;6.10;99.90
22765;DHT22;11549;50.852;3.816;2024-02-26T04:24:44;6.10;99.90
22765;DHT22;11549;50.852;3.816;2024-02-26T04:27:13;6.10;99.90
22765;DHT22;11549;50.852;3.816;2024-02-26T04:29:41;6.10;99.90
22765;DHT22;11549;50.852;3.816;2024-02-26T04:32:10;6.00;99.90
22765;DHT22;11549;50.852;3.816;2024-02-26T04:34:38;6.10;99.90
22765;DHT22;11549;50.852;3.816;2024-02-26T04:37:06;6.00;99.90
22765;DHT22;11549;50.852;3.816;2024-02-26T04:39:36;6.00;99.90
22765;DHT22;11549;50.852;3.816;2024-02-26T04:42:05;5.90;99.90
22765;DHT22;11549;50.852;3.816;2024-02-26T04:44:33;6.00;99.90
22765;DHT22;11549;50.852;3.816;2024-02-26T04:47:01;6.00;99.90
22765;DHT22;11549;50.852;3.816;2024-02-26T04:49:30;6.00;99.90
22765;DHT22;11549;50.852;3.816;2024-02-26T04:51:58;6.10;99.90
22765;DHT22;11549;50.852;3.816;2024-02-26T04:54:27;6.10;99.90
22765;DHT22;11549;50.852;3.816;2024-02-26T04:56:57;6.10;99.90
22765;DHT22;11549;50.852;3.816;2024-02-26T04:59:25;6.00;99.90
22765;DHT22;11549;50.852;3.816;2024-02-26T05:01:54;6.10;99.90
22765;DHT22;11549;50.852;3.816;2024-02-26T05:04:22;6.10;99.90
22765;DHT22;11549;50.852;3.816;2024-02-26T05:06:51;6.00;99.90
22765;DHT22;11549;50.852;3.816;2024-02-26T05:09:21;6.00;99.90
22765;DHT22;11549;50.852;3.816;2024-02-26T05:11:49;6.00;99.90
22765;DHT22;11549;50.852;3.816;2024-02-26T05:14:19;6.10;99.90
22765;DHT22;11549;50.852;3.816;2024-02-26T05:16:48;6.10;99.90
22765;DHT22;11549;50.852;3.816;2024-02-26T05:19:16;6.10;99.90
22765;DHT22;11549;50.852;3.816;2024-02-26T05:21:45;6.10;99.90
22765;DHT22;11549;50.852;3.816;2024-02-26T05:24:16;6.00;99.90
22765;DHT22;11549;50.852;3.816;2024-02-26T05:26:45;6.00;99.90
22765;DHT22;11549;50.852;3.816;2024-02-26T05:29:14;6.10;99.90
22765;DHT22;11549;50.852;3.816;2024-02-26T05:31:44;6.10;99.90
22765;DHT22;11549;50.852;3.816;2024-02-26T05:34:12;6.10;99.90
22765;DHT22;11549;50.852;3.816;2024-02-26T05:36:41;6.10;99.90
22765;DHT22;11549;50.852;3.816;2024-02-26T05:39:09;6.10;99.90
22765;DHT22;11549;50.852;3.816;2024-02-26T05:41:44;6.10;99.90
22765;DHT22;11549;50.852;3.816;2024-02-26T05:44:13;6.10;99.90
22765;DHT22;11549;50.852;3.816;2024-02-26T05:46:43;6.10;99.90
22765;DHT22;11549;50.852;3.816;2024-02-26T05:49:11;6.10;99.90
22765;DHT22;11549;50.852;3.816;2024-02-26T05:51:40;6.10;99.90
22765;DHT22;11549;50.852;3.816;2024-02-26T05:54:08;6.20;99.90
22765;DHT22;11549;50.852;3.816;2024-02-26T05:56:37;6.10;99.90
22765;DHT22;11549;50.852;3.816;2024-02-26T05:59:05;6.20;99.90
22765;DHT22;11549;50.852;3.816;2024-02-26T06:01:34;6.20;99.90
22765;DHT22;11549;50.852;3.816;2024-02-26T06:04:03;6.10;99.90
22765;DHT22;11549;50.852;3.816;2024-02-26T06:06:32;6.10;99.90
22765;DHT22;11549;50.852;3.816;2024-02-26T06:09:01;6.10;99.90
22765;DHT22;11549;50.852;3.816;2024-02-26T06:11:31;6.10;99.90
22765;DHT22;11549;50.852;3.816;2024-02-26T06:14:00;6.10;99.90
22765;DHT22;11549;50.852;3.816;2024-02-26T06:16:30;6.10;99.90
22765;DHT22;11549;50.852;3.816;2024-02-26T06:18:58;6.20;99.90
22765;DHT22;11549;50.852;3.816;2024-02-26T06:21:29;6.20;99.90
22765;DHT22;11549;50.852;3.816;2024-02-26T06:23:58;6.20;99.90
22765;DHT22;11549;50.852;3.816;2024-02-26T06:26:26;6.20;99.90
22765;DHT22;11549;50.852;3.816;2024-02-26T06:28:56;6.10;99.90
22765;DHT22;11549;50.852;3.816;2024-02-26T06:31:24;6.10;99.90
22765;DHT22;11549;50.852;3.816;2024-02-26T06:33:54;6.10;99.90
22765;DHT22;11549;50.852;3.816;2024-02-26T06:36:24;6.10;99.90
22765;DHT22;11549;50.852;3.816;2024-02-26T06:38:54;6.10;99.90
22765;DHT22;11549;50.852;3.816;2024-02-26T06:41:22;6.10;99.90
22765;DHT22;11549;50.852;3.816;2024-02-26T06:43:54;6.10;99.90
22765;DHT22;11549;50.852;3.816;2024-02-26T06:46:22;6.10;99.90
22765;DHT22;11549;50.852;3.816;2024-02-26T06:48:51;6.10;99.90
22765;DHT22;11549;50.852;3.816;2024-02-26T06:51:22;6.10;99.90
22765;DHT22;11549;50.852;3.816;2024-02-26T06:53:50;6.10;99.90
22765;DHT22;11549;50.852;3.816;2024-02-26T06:56:20;6.10;99.90
22765;DHT22;11549;50.852;3.816;2024-02-26T06:58:48;6.10;99.90
22765;DHT22;11549;50.852;3.816;2024-02-26T07:01:18;6.10;99.90
22765;DHT22;11549;50.852;3.816;2024-02-26T07:03:46;6.20;99.90
22765;DHT22;11549;50.852;3.816;2024-02-26T07:06:15;6.20;99.90
22765;DHT22;11549;50.852;3.816;2024-02-26T07:08:44;6.20;99.90
22765;DHT22;11549;50.852;3.816;2024-02-26T07:11:12;6.20;99.90
22765;DHT22;11549;50.852;3.816;2024-02-26T07:13:42;6.20;99.90
22765;DHT22;11549;50.852;3.816;2024-02-26T07:16:10;6.10;99.90
22765;DHT22;11549;50.852;3.816;2024-02-26T07:18:39;6.10;99.90
22765;DHT22;11549;50.852;3.816;2024-02-26T07:21:08;6.10;99.90
22765;DHT22;11549;50.852;3.816;2024-02-26T07:23:36;6.00;99.90
22765;DHT22;11549;50.852;3.816;2024-02-26T07:26:05;6.00;99.90
22765;DHT22;11549;50.852;3.816;2024-02-26T07:28:35;6.00;99.90
22765;DHT22;11549;50.852;3.816;2024-02-26T07:31:05;6.00;99.90
22765;DHT22;11549;50.852;3.816;2024-02-26T07:33:33;6.00;99.90
22765;DHT22;11549;50.852;3.816;2024-02-26T07:36:02;6.10;99.90
22765;DHT22;11549;50.852;3.816;2024-02-26T07:38:31;6.10;99.90
22765;DHT22;11549;50.852;3.816;2024-02-26T07:41:09;6.00;99.90
22765;DHT22;11549;50.852;3.816;2024-02-26T07:43:38;6.00;99.90
22765;DHT22;11549;50.852;3.816;2024-02-26T07:46:11;6.00;99.90
22765;DHT22;11549;50.852;3.816;2024-02-26T07:48:40;5.90;99.90
22765;DHT22;11549;50.852;3.816;2024-02-26T07:51:11;5.90;99.90
22765;DHT22;11549;50.852;3.816;2024-02-26T07:53:40;5.90;99.90
22765;DHT22;11549;50.852;3.816;2024-02-26T07:56:09;5.90;99.90
22765;DHT22;11549;50.852;3.816;2024-02-26T07:58:37;5.90;99.90
22765;DHT22;11549;50.852;3.816;2024-02-26T08:01:06;6.00;99.90
22765;DHT22;11549;50.852;3.816;2024-02-26T08:03:37;5.90;99.90
22765;DHT22;11549;50.852;3.816;2024-02-26T08:06:07;5.90;99.90
22765;DHT22;11549;50.852;3.816;2024-02-26T08:08:36;5.90;99.90
22765;DHT22;11549;50.852;3.816;2024-02-26T08:11:04;5.80;99.90
22765;DHT22;11549;50.852;3.816;2024-02-26T08:13:33;5.80;99.90
22765;DHT22;11549;50.852;3.816;2024-02-26T08:16:01;5.90;99.90
22765;DHT22;11549;50.852;3.816;2024-02-26T08:18:30;5.90;99.90
22765;DHT22;11549;50.852;3.816;2024-02-26T08:20:59;5.90;99.90
22765;DHT22;11549;50.852;3.816;2024-02-26T08:23:28;5.80;99.90
22765;DHT22;11549;50.852;3.816;2024-02-26T08:25:58;5.80;99.90
22765;DHT22;11549;50.852;3.816;2024-02-26T08:28:26;5.80;99.90
22765;DHT22;11549;50.852;3.816;2024-02-26T08:30:54;5.90;99.90
22765;DHT22;11549;50.852;3.816;2024-02-26T08:33:23;5.90;99.90
22765;DHT22;11549;50.852;3.816;2024-02-26T08:35:51;5.90;99.90
22765;DHT22;11549;50.852;3.816;2024-02-26T08:38:21;5.90;99.90
22765;DHT22;11549;50.852;3.816;2024-02-26T08:40:49;5.90;99.90
22765;DHT22;11549;50.852;3.816;2024-02-26T08:43:17;5.90;99.90
22765;DHT22;11549;50.852;3.816;2024-02-26T08:45:46;5.90;99.90
22765;DHT22;11549;50.852;3.816;2024-02-26T08:48:14;5.90;99.90
22765;DHT22;11549;50.852;3.816;2024-02-26T08:50:43;5.90;99.90
22765;DHT22;11549;50.852;3.816;2024-02-26T08:53:12;5.90;99.90
22765;DHT22;11549;50.852;3.816;2024-02-26T08:55:51;5.80;99.90
22765;DHT22;11549;50.852;3.816;2024-02-26T08:58:20;5.80;99.90
22765;DHT22;11549;50.852;3.816;2024-02-26T09:00:48;5.80;99.90
22765;DHT22;11549;50.852;3.816;2024-02-26T09:03:17;5.80;99.90
22765;DHT22;11549;50.852;3.816;2024-02-26T09:05:46;5.80;99.90
22765;DHT22;11549;50.852;3.816;2024-02-26T09:08:14;5.80;99.90
22765;DHT22;11549;50.852;3.816;2024-02-26T09:10:43;5.90;99.90
22765;DHT22;11549;50.852;3.816;2024-02-26T09:13:13;5.90;99.90
22765;DHT22;11549;50.852;3.816;2024-02-26T09:15:41;5.80;99.90
22765;DHT22;11549;50.852;3.816;2024-02-26T09:18:09;5.80;99.90
22765;DHT22;11549;50.852;3.816;2024-02-26T09:20:38;5.80;99.90
22765;DHT22;11549;50.852;3.816;2024-02-26T09:23:07;5.90;99.90
22765;DHT22;11549;50.852;3.816;2024-02-26T09:25:35;5.80;99.90
22765;DHT22;11549;50.852;3.816;2024-02-26T09:28:04;5.90;99.90
22765;DHT22;11549;50.852;3.816;2024-02-26T09:30:34;5.90;99.90
22765;DHT22;11549;50.852;3.816;2024-02-26T09:33:02;5.80;99.90
22765;DHT22;11549;50.852;3.816;2024-02-26T09:35:31;5.80;99.90
22765;DHT22;11549;50.852;3.816;2024-02-26T09:37:59;5.80;99.90
22765;DHT22;11549;50.852;3.816;2024-02-26T09:40:28;5.80;99.90
22765;DHT22;11549;50.852;3.816;2024-02-26T09:42:59;5.90;99.90
22765;DHT22;11549;50.852;3.816;2024-02-26T09:45:28;5.90;99.90
22765;DHT22;11549;50.852;3.816;2024-02-26T09:48:00;5.90;99.90
22765;DHT22;11549;50.852;3.816;2024-02-26T09:50:31;5.90;99.90
22765;DHT22;11549;50.852;3.816;2024-02-26T09:53:00;6.00;99.90
22765;DHT22;11549;50.852;3.816;2024-02-26T09:55:30;6.00;99.90
22765;DHT22;11549;50.852;3.816;2024-02-26T09:57:58;6.00;99.90
22765;DHT22;11549;50.852;3.816;2024-02-26T10:00:30;5.90;99.90
22765;DHT22;11549;50.852;3.816;2024-02-26T10:03:04;6.00;99.90
22765;DHT22;11549;50.852;3.816;2024-02-26T10:05:33;6.00;99.90
22765;DHT22;11549;50.852;3.816;2024-02-26T10:08:04;5.90;99.90
22765;DHT22;11549;50.852;3.816;2024-02-26T10:10:33;6.00;99.90
22765;DHT22;11549;50.852;3.816;2024-02-26T10:13:04;6.00;99.90
22765;DHT22;11549;50.852;3.816;2024-02-26T10:15:37;6.00;99.90
22765;DHT22;11549;50.852;3.816;2024-02-26T10:18:07;5.90;99.90
22765;DHT22;11549;50.852;3.816;2024-02-26T10:20:36;5.90;99.90
22765;DHT22;11549;50.852;3.816;2024-02-26T10:23:05;5.90;99.90
22765;DHT22;11549;50.852;3.816;2024-02-26T10:25:34;5.90;99.90
22765;DHT22;11549;50.852;3.816;2024-02-26T10:28:03;5.90;99.90
22765;DHT22;11549;50.852;3.816;2024-02-26T10:30:31;5.90;99.90
22765;DHT22;11549;50.852;3.816;2024-02-26T10:33:00;5.90;99.90
22765;DHT22;11549;50.852;3.816;2024-02-26T10:35:31;5.90;99.90
22765;DHT22;11549;50.852;3.816;2024-02-26T10:38:01;5.90;99.90
22765;DHT22;11549;50.852;3.816;2024-02-26T10:40:30;5.90;99.90
22765;DHT22;11549;50.852;3.816;2024-02-26T10:42:59;5.90;99.90
22765;DHT22;11549;50.852;3.816;2024-02-26T10:45:28;5.90;99.90
22765;DHT22;11549;50.852;3.816;2024-02-26T10:47:56;6.00;99.90
22765;DHT22;11549;50.852;3.816;2024-02-26T10:50:25;6.00;99.90
22765;DHT22;11549;50.852;3.816;2024-02-26T10:52:56;6.00;99.90
22765;DHT22;11549;50.852;3.816;2024-02-26T10:55:26;6.00;99.90
22765;DHT22;11549;50.852;3.816;2024-02-26T10:57:55;6.00;99.90
22765;DHT22;11549;50.852;3.816;2024-02-26T11:00:25;6.10;99.90
22765;DHT22;11549;50.852;3.816;2024-02-26T11:02:55;6.00;99.90
22765;DHT22;11549;50.852;3.816;2024-02-26T11:05:25;6.00;99.90
22765;DHT22;11549;50.852;3.816;2024-02-26T11:07:56;6.00;99.90
22765;DHT22;11549;50.852;3.816;2024-02-26T11:10:25;6.00;99.90
22765;DHT22;11549;50.852;3.816;2024-02-26T11:12:55;6.00;99.90
22765;DHT22;11549;50.852;3.816;2024-02-26T11:15:24;6.00;99.90
22765;DHT22;11549;50.852;3.816;2024-02-26T11:17:53;6.10;99.90
22765;DHT22;11549;50.852;3.816;2024-02-26T11:20:24;5.90;99.90
22765;DHT22;11549;50.852;3.816;2024-02-26T11:22:53;5.90;99.90
22765;DHT22;11549;50.852;3.816;2024-02-26T11:25:23;5.90;99.90
22765;DHT22;11549;50.852;3.816;2024-02-26T11:27:55;5.90;99.90
22765;DHT22;11549;50.852;3.816;2024-02-26T11:30:26;5.90;99.90
22765;DHT22;11549;50.852;3.816;2024-02-26T11:32:57;5.90;99.90
22765;DHT22;11549;50.852;3.816;2024-02-26T11:35:27;5.90;99.90
22765;DHT22;11549;50.852;3.816;2024-02-26T11:37:56;5.90;99.90
22765;DHT22;11549;50.852;3.816;2024-02-26T11:40:31;5.90;99.90
22765;DHT22;11549;50.852;3.816;2024-02-26T11:43:00;6.00;99.90
22765;DHT22;11549;50.852;3.816;2024-02-26T11:45:47;5.90;99.90
22765;DHT22;11549;50.852;3.816;2024-02-26T11:48:23;5.90;99.90
22765;DHT22;11549;50.852;3.816;2024-02-26T11:50:53;5.90;99.90
22765;DHT22;11549;50.852;3.816;2024-02-26T11:53:25;5.90;99.90
22765;DHT22;11549;50.852;3.816;2024-02-26T11:56:15;5.90;99.90
22765;DHT22;11549;50.852;3.816;2024-02-26T11:58:48;6.00;99.90
22765;DHT22;11549;50.852;3.816;2024-02-26T12:01:44;6.00;99.90
22765;DHT22;11549;50.852;3.816;2024-02-26T12:04:17;6.00;99.90
22765;DHT22;11549;50.852;3.816;2024-02-26T12:06:50;5.90;99.90
22765;DHT22;11549;50.852;3.816;2024-02-26T12:09:31;5.90;99.90
22765;DHT22;11549;50.852;3.816;2024-02-26T12:12:02;6.00;99.90
22765;DHT22;11549;50.852;3.816;2024-02-26T12:14:33;5.90;99.90
22765;DHT22;11549;50.852;3.816;2024-02-26T12:17:03;6.00;99.90
22765;DHT22;11549;50.852;3.816;2024-02-26T12:19:34;6.00;99.90
22765;DHT22;11549;50.852;3.816;2024-02-26T12:22:08;6.00;99.90
22765;DHT22;11549;50.852;3.816;2024-02-26T12:24:39;6.00;99.90
22765;DHT22;11549;50.852;3.816;2024-02-26T12:27:09;6.00;99.90
22765;DHT22;11549;50.852;3.816;2024-02-26T12:29:37;6.00;99.90
22765;DHT22;11549;50.852;3.816;2024-02-26T12:32:06;6.00;99.90
22765;DHT22;11549;50.852;3.816;2024-02-26T12:34:35;6.10;99.90
22765;DHT22;11549;50.852;3.816;2024-02-26T12:37:04;5.90;99.90
22765;DHT22;11549;50.852;3.816;2024-02-26T12:39:34;5.90;99.90
22765;DHT22;11549;50.852;3.816;2024-02-26T12:42:03;5.90;99.90
22765;DHT22;11549;50.852;3.816;2024-02-26T12:44:33;5.90;99.90
22765;DHT22;11549;50.852;3.816;2024-02-26T12:47:02;5.90;99.90
22765;DHT22;11549;50.852;3.816;2024-02-26T12:49:31;5.90;99.90
22765;DHT22;11549;50.852;3.816;2024-02-26T12:52:01;6.00;99.90
22765;DHT22;11549;50.852;3.816;2024-02-26T12:54:31;6.00;99.90
22765;DHT22;11549;50.852;3.816;2024-02-26T12:57:02;6.00;99.90
22765;DHT22;11549;50.852;3.816;2024-02-26T12:59:34;6.10;99.90
22765;DHT22;11549;50.852;3.816;2024-02-26T13:02:04;6.10;99.90
22765;DHT22;11549;50.852;3.816;2024-02-26T13:04:34;6.10;99.90
22765;DHT22;11549;50.852;3.816;2024-02-26T13:07:04;6.10;99.90
22765;DHT22;11549;50.852;3.816;2024-02-26T13:09:34;6.20;99.90
22765;DHT22;11549;50.852;3.816;2024-02-26T13:12:04;6.20;99.90
22765;DHT22;11549;50.852;3.816;2024-02-26T13:14:35;6.20;99.90
22765;DHT22;11549;50.852;3.816;2024-02-26T13:17:04;6.20;99.90
22765;DHT22;11549;50.852;3.816;2024-02-26T13:19:33;6.10;99.90
22765;DHT22;11549;50.852;3.816;2024-02-26T13:22:06;6.10;99.90
22765;DHT22;11549;50.852;3.816;2024-02-26T13:24:35;6.00;99.90
22765;DHT22;11549;50.852;3.816;2024-02-26T13:27:04;6.00;99.90
22765;DHT22;11549;50.852;3.816;2024-02-26T13:29:35;6.10;99.90
22765;DHT22;11549;50.852;3.816;2024-02-26T13:32:04;6.00;99.90
22765;DHT22;11549;50.852;3.816;2024-02-26T13:34:34;6.00;99.90
22765;DHT22;11549;50.852;3.816;2024-02-26T13:37:04;6.10;99.90
22765;DHT22;11549;50.852;3.816;2024-02-26T13:39:32;6.10;99.90
22765;DHT22;11549;50.852;3.816;2024-02-26T13:42:06;6.00;99.90
22765;DHT22;11549;50.852;3.816;2024-02-26T13:44:40;6.00;99.90
22765;DHT22;11549;50.852;3.816;2024-02-26T13:47:09;6.00;99.90
22765;DHT22;11549;50.852;3.816;2024-02-26T13:49:37;5.90;99.90
22765;DHT22;11549;50.852;3.816;2024-02-26T13:52:07;6.00;99.90
22765;DHT22;11549;50.852;3.816;2024-02-26T13:54:35;6.00;99.90
22765;DHT22;11549;50.852;3.816;2024-02-26T13:57:05;6.00;99.90
22765;DHT22;11549;50.852;3.816;2024-02-26T13:59:34;6.00;99.90
22765;DHT22;11549;50.852;3.816;2024-02-26T14:02:05;6.00;99.90
22765;DHT22;11549;50.852;3.816;2024-02-26T14:04:33;6.10;99.90
22765;DHT22;11549;50.852;3.816;2024-02-26T14:07:03;6.10;99.90
22765;DHT22;11549;50.852;3.816;2024-02-26T14:09:34;6.20;99.90
22765;DHT22;11549;50.852;3.816;2024-02-26T14:12:15;6.20;99.90
22765;DHT22;11549;50.852;3.816;2024-02-26T14:14:49;6.20;99.90
22765;DHT22;11549;50.852;3.816;2024-02-26T14:17:22;6.20;99.90
22765;DHT22;11549;50.852;3.816;2024-02-26T14:19:51;6.20;99.90
22765;DHT22;11549;50.852;3.816;2024-02-26T14:22:19;6.10;99.90
22765;DHT22;11549;50.852;3.816;2024-02-26T14:24:47;6.20;99.90
22765;DHT22;11549;50.852;3.816;2024-02-26T14:27:16;6.30;99.90
22765;DHT22;11549;50.852;3.816;2024-02-26T14:29:44;6.30;99.90
22765;DHT22;11549;50.852;3.816;2024-02-26T14:32:13;6.20;99.90
22765;DHT22;11549;50.852;3.816;2024-02-26T14:34:43;6.30;99.90
22765;DHT22;11549;50.852;3.816;2024-02-26T14:37:12;6.20;99.90
22765;DHT22;11549;50.852;3.816;2024-02-26T14:39:40;6.20;99.90
22765;DHT22;11549;50.852;3.816;2024-02-26T14:42:09;6.20;99.90
22765;DHT22;11549;50.852;3.816;2024-02-26T14:44:38;6.20;99.90
22765;DHT22;11549;50.852;3.816;2024-02-26T14:47:06;6.10;99.90
22765;DHT22;11549;50.852;3.816;2024-02-26T14:49:35;6.20;99.90
22765;DHT22;11549;50.852;3.816;2024-02-26T14:52:05;6.20;99.90
22765;DHT22;11549;50.852;3.816;2024-02-26T14:54:33;6.20;99.90
22765;DHT22;11549;50.852;3.816;2024-02-26T14:57:06;6.20;99.90
22765;DHT22;11549;50.852;3.816;2024-02-26T14:59:34;6.10;99.90
22765;DHT22;11549;50.852;3.816;2024-02-26T15:02:04;6.20;99.90
22765;DHT22;11549;50.852;3.816;2024-02-26T15:04:32;6.10;99.90
22765;DHT22;11549;50.852;3.816;2024-02-26T15:07:02;6.10;99.90
22765;DHT22;11549;50.852;3.816;2024-02-26T15:09:32;6.10;99.90
22765;DHT22;11549;50.852;3.816;2024-02-26T15:12:02;6.10;99.90
22765;DHT22;11549;50.852;3.816;2024-02-26T15:14:33;6.10;99.90
22765;DHT22;11549;50.852;3.816;2024-02-26T15:17:02;6.10;99.90
22765;DHT22;11549;50.852;3.816;2024-02-26T15:19:31;6.20;99.90
22765;DHT22;11549;50.852;3.816;2024-02-26T15:21:59;6.20;99.90
22765;DHT22;11549;50.852;3.816;2024-02-26T15:24:28;6.10;99.90
22765;DHT22;11549;50.852;3.816;2024-02-26T15:26:57;6.20;99.90
22765;DHT22;11549;50.852;3.816;2024-02-26T15:29:26;6.20;99.90
22765;DHT22;11549;50.852;3.816;2024-02-26T15:31:54;6.20;99.90
22765;DHT22;11549;50.852;3.816;2024-02-26T15:34:22;6.20;99.90
22765;DHT22;11549;50.852;3.816;2024-02-26T15:36:51;6.30;99.90
22765;DHT22;11549;50.852;3.816;2024-02-26T15:39:20;6.30;99.90
22765;DHT22;11549;50.852;3.816;2024-02-26T15:41:48;6.20;99.90
22765;DHT22;11549;50.852;3.816;2024-02-26T15:44:18;6.20;99.90
22765;DHT22;11549;50.852;3.816;2024-02-26T15:46:47;6.20;99.90
22765;DHT22;11549;50.852;3.816;2024-02-26T15:49:15;6.20;99.90
22765;DHT22;11549;50.852;3.816;2024-02-26T15:51:43;6.20;99.90
22765;DHT22;11549;50.852;3.816;2024-02-26T15:54:12;6.20;99.90
22765;DHT22;11549;50.852;3.816;2024-02-26T15:56:41;6.20;99.90
22765;DHT22;11549;50.852;3.816;2024-02-26T15:59:10;6.10;99.90
22765;DHT22;11549;50.852;3.816;2024-02-26T16:01:40;6.10;99.90